Time;durP1;ratioP1;P1;durP2;ratioP2;P2;SDS_P1;SDS_P2;PMS_P1;PMS_P2;Temp;Humidity;BMP_temperature;BMP_pressure;BME280_temperature;BME280_humidity;BME280_pressure;Samples;Min_cycle;Max_cycle;Signal;HPM_P1;HPM_P2
2021/04/18 00:00:51;;;;;;;8.33;3.10;;;9.00;65.40;;;;;;5016586;28;20021;-81
2021/04/18 00:03:17;;;;;;;6.67;2.60;;;8.90;65.30;;;;;;5016891;28;20028;-81
2021/04/18 00:05:42;;;;;;;6.40;3.00;;;8.90;65.70;;;;;;5014951;28;20021;-81
2021/04/18 00:08:09;;;;;;;7.37;3.00;;;9.00;65.60;;;;;;5017133;28;20046;-81
2021/04/18 00:10:37;;;;;;;5.10;2.30;;;8.90;65.80;;;;;;5015811;28;20057;-80
2021/04/18 00:13:04;;;;;;;8.30;2.67;;;8.90;65.80;;;;;;5016570;28;20018;-81
2021/04/18 00:15:30;;;;;;;6.43;2.70;;;8.80;66.20;;;;;;5016600;28;20029;-81
2021/04/18 00:17:56;;;;;;;6.27;2.80;;;8.80;66.50;;;;;;5016213;28;20049;-81
2021/04/18 00:20:22;;;;;;;7.07;2.50;;;8.80;66.80;;;;;;5016119;28;20451;-80
2021/04/18 00:22:48;;;;;;;6.60;2.87;;;8.80;66.80;;;;;;5016779;28;20710;-81
2021/04/18 00:25:16;;;;;;;7.63;2.50;;;8.80;67.00;;;;;;5016053;28;20041;-80
2021/04/18 00:27:43;;;;;;;5.97;2.70;;;8.70;67.00;;;;;;5016101;28;20138;-81
2021/04/18 00:30:13;;;;;;;8.20;3.00;;;8.70;67.00;;;;;;5015925;28;20104;-80
2021/04/18 00:32:40;;;;;;;6.47;3.00;;;8.70;67.10;;;;;;5016440;28;20030;-81
2021/04/18 00:35:09;;;;;;;10.23;3.10;;;8.70;67.10;;;;;;5016544;28;20384;-81
2021/04/18 00:37:35;;;;;;;6.07;2.90;;;8.60;67.10;;;;;;5016163;28;20038;-81
2021/04/18 00:40:06;;;;;;;9.70;2.80;;;8.60;68.30;;;;;;5015317;28;20041;-80
2021/04/18 00:42:31;;;;;;;7.53;2.70;;;8.50;67.90;;;;;;5016426;28;20022;-80
2021/04/18 00:44:57;;;;;;;7.80;2.90;;;8.50;68.40;;;;;;5016288;28;20384;-81
2021/04/18 00:47:23;;;;;;;8.40;2.90;;;8.50;68.60;;;;;;5016668;28;20064;-80
2021/04/18 00:49:48;;;;;;;7.83;2.90;;;8.50;68.40;;;;;;5015794;28;20127;-81
2021/04/18 00:52:14;;;;;;;7.63;3.00;;;8.50;68.60;;;;;;5014538;28;20029;-81
2021/04/18 00:54:40;;;;;;;8.20;2.77;;;8.50;68.60;;;;;;5014651;28;20061;-81
2021/04/18 00:57:07;;;;;;;8.30;3.20;;;8.50;68.60;;;;;;5014977;28;20064;-81
2021/04/18 00:59:33;;;;;;;7.27;2.87;;;8.40;68.80;;;;;;5013590;28;20356;-80
2021/04/18 01:01:59;;;;;;;7.47;2.87;;;8.50;68.60;;;;;;5019161;28;20455;-81
2021/04/18 01:04:25;;;;;;;7.80;3.13;;;8.40;69.00;;;;;;5019302;28;20025;-81
2021/04/18 01:06:51;;;;;;;6.10;2.80;;;8.40;68.90;;;;;;5019909;28;20029;-80
2021/04/18 01:09:16;;;;;;;9.47;3.13;;;8.40;69.20;;;;;;5017767;28;20114;-80
2021/04/18 01:11:42;;;;;;;7.60;2.90;;;8.40;69.30;;;;;;5018781;28;20021;-81
2021/04/18 01:14:08;;;;;;;6.47;2.83;;;8.40;69.30;;;;;;5019690;28;20026;-80
2021/04/18 01:16:33;;;;;;;10.50;3.47;;;8.20;70.20;;;;;;5019717;28;20077;-80
2021/04/18 01:18:59;;;;;;;6.83;2.60;;;8.20;70.80;;;;;;5019526;28;20026;-81
2021/04/18 01:21:25;;;;;;;7.00;2.93;;;8.10;71.90;;;;;;5018719;28;20152;-81
2021/04/18 01:23:51;;;;;;;6.57;2.90;;;7.90;72.50;;;;;;5020242;28;20698;-81
2021/04/18 01:26:17;;;;;;;10.83;3.40;;;7.80;73.40;;;;;;5018793;28;20613;-80
2021/04/18 01:28:42;;;;;;;6.90;3.20;;;7.90;73.60;;;;;;5019515;28;20026;-80
2021/04/18 01:31:08;;;;;;;10.17;2.90;;;7.80;74.20;;;;;;5018835;28;20030;-80
2021/04/18 01:33:34;;;;;;;6.87;2.87;;;7.80;74.30;;;;;;5017569;28;20076;-80
2021/04/18 01:36:04;;;;;;;8.47;3.00;;;7.80;74.70;;;;;;5018895;28;20026;-81
2021/04/18 01:38:31;;;;;;;7.30;2.70;;;7.70;75.00;;;;;;5017715;28;20026;-80
2021/04/18 01:41:01;;;;;;;7.03;2.70;;;7.60;75.60;;;;;;5018281;28;20022;-81
2021/04/18 01:43:27;;;;;;;7.57;3.33;;;7.50;76.00;;;;;;5019778;28;20074;-80
2021/04/18 01:45:53;;;;;;;7.70;2.93;;;7.50;76.00;;;;;;5019164;28;20046;-80
2021/04/18 01:48:19;;;;;;;7.50;2.63;;;7.50;75.80;;;;;;5019966;28;20033;-80
2021/04/18 01:50:48;;;;;;;6.63;2.90;;;7.60;75.90;;;;;;5017279;28;20466;-80
2021/04/18 01:53:14;;;;;;;7.27;3.10;;;7.50;76.50;;;;;;5019427;28;20033;-80
2021/04/18 01:55:41;;;;;;;7.93;2.90;;;7.50;76.40;;;;;;5020052;28;20789;-80
2021/04/18 01:58:07;;;;;;;8.30;2.77;;;7.50;76.40;;;;;;5020052;28;20026;-80
2021/04/18 02:00:33;;;;;;;8.03;3.27;;;7.40;76.90;;;;;;5019603;28;20048;-80
2021/04/18 02:02:59;;;;;;;11.97;3.20;;;7.30;77.10;;;;;;5020417;28;20026;-80
2021/04/18 02:05:28;;;;;;;7.77;3.03;;;7.30;77.20;;;;;;5020202;28;20026;-80
2021/04/18 02:07:53;;;;;;;8.57;3.15;;;7.30;78.30;;;;;;5018889;28;20675;-81
2021/04/18 02:10:19;;;;;;;6.60;2.70;;;7.20;77.80;;;;;;5018176;28;20113;-80
2021/04/18 02:12:46;;;;;;;7.70;3.10;;;7.30;78.00;;;;;;5017628;28;20022;-80
2021/04/18 02:15:12;;;;;;;7.07;3.17;;;7.30;78.20;;;;;;5019142;28;20022;-81
2021/04/18 02:17:38;;;;;;;6.37;3.13;;;7.40;78.10;;;;;;5019963;28;20049;-81
2021/04/18 02:20:05;;;;;;;8.10;3.07;;;7.50;77.10;;;;;;5018524;28;20029;-80
2021/04/18 02:22:31;;;;;;;8.80;3.60;;;7.60;76.60;;;;;;5018832;28;20037;-81
2021/04/18 02:24:57;;;;;;;8.77;3.53;;;7.70;75.70;;;;;;5018461;28;20028;-80
2021/04/18 02:27:25;;;;;;;9.70;3.57;;;7.70;75.20;;;;;;5018156;28;20030;-79
2021/04/18 02:29:52;;;;;;;6.97;3.30;;;7.90;74.90;;;;;;5018010;28;20065;-80
2021/04/18 02:32:17;;;;;;;9.63;3.63;;;7.90;74.60;;;;;;5016849;28;20034;-81
2021/04/18 02:34:43;;;;;;;9.80;4.03;;;8.00;74.30;;;;;;5018395;28;20022;-81
2021/04/18 02:37:08;;;;;;;9.40;3.20;;;8.10;73.80;;;;;;5018198;28;20443;-80
2021/04/18 02:39:34;;;;;;;10.47;4.00;;;8.10;74.00;;;;;;5018214;28;20076;-81
2021/04/18 02:41:59;;;;;;;10.33;3.60;;;8.10;74.10;;;;;;5018214;28;20037;-81
2021/04/18 02:44:25;;;;;;;9.10;3.50;;;8.00;73.90;;;;;;5017289;28;20081;-80
2021/04/18 02:46:51;;;;;;;8.07;3.67;;;7.90;74.60;;;;;;5017675;28;20097;-80
2021/04/18 02:49:16;;;;;;;7.97;3.90;;;8.00;74.00;;;;;;5015799;28;20036;-81
2021/04/18 02:51:42;;;;;;;9.37;3.43;;;8.00;73.80;;;;;;5017159;28;20045;-81
2021/04/18 02:54:08;;;;;;;9.33;3.40;;;8.00;74.00;;;;;;5016422;28;20466;-80
2021/04/18 02:56:33;;;;;;;11.47;4.03;;;8.10;74.20;;;;;;5016273;28;20026;-81
2021/04/18 02:58:59;;;;;;;9.73;3.53;;;8.10;74.10;;;;;;5017457;28;20084;-81
2021/04/18 03:01:25;;;;;;;8.27;3.23;;;8.10;74.20;;;;;;5017320;28;20128;-81
2021/04/18 03:03:50;;;;;;;7.73;3.80;;;8.10;74.00;;;;;;5017770;28;20029;-81
2021/04/18 03:06:16;;;;;;;9.47;3.80;;;8.10;74.20;;;;;;5017389;28;20100;-81
2021/04/18 03:08:42;;;;;;;8.60;3.70;;;8.10;74.10;;;;;;5016063;28;20026;-81
2021/04/18 03:11:08;;;;;;;11.73;4.43;;;8.00;74.40;;;;;;5014519;28;20030;-81
2021/04/18 03:13:34;;;;;;;11.27;4.20;;;8.10;74.60;;;;;;5016746;28;20108;-81
2021/04/18 03:16:00;;;;;;;8.50;4.23;;;8.10;74.60;;;;;;5016771;28;20436;-81
2021/04/18 03:18:25;;;;;;;9.33;4.10;;;8.10;74.90;;;;;;5015920;28;20048;-81
2021/04/18 03:20:51;;;;;;;11.43;3.97;;;8.10;74.90;;;;;;5015865;28;20053;-81
2021/04/18 03:23:16;;;;;;;10.10;4.37;;;8.10;74.80;;;;;;5016943;28;20100;-81
2021/04/18 03:25:42;;;;;;;10.93;4.27;;;8.10;74.90;;;;;;5016188;28;20108;-81
2021/04/18 03:28:08;;;;;;;11.63;4.27;;;8.10;75.10;;;;;;5014871;28;20439;-80
2021/04/18 03:30:35;;;;;;;8.13;4.07;;;8.10;75.40;;;;;;5015971;28;20064;-81
2021/04/18 03:33:01;;;;;;;9.00;4.20;;;8.00;75.80;;;;;;5016649;28;20038;-81
2021/04/18 03:35:27;;;;;;;8.97;4.17;;;8.00;76.10;;;;;;5016598;28;20030;-81
2021/04/18 03:37:52;;;;;;;9.07;4.10;;;8.00;76.30;;;;;;5017178;28;20041;-81
2021/04/18 03:40:18;;;;;;;9.47;4.40;;;7.90;76.60;;;;;;5014926;28;20042;-80
2021/04/18 03:42:44;;;;;;;9.23;4.53;;;8.00;76.90;;;;;;5015542;28;20060;-81
2021/04/18 03:45:10;;;;;;;8.80;4.60;;;8.00;76.60;;;;;;5016580;28;20030;-81
2021/04/18 03:47:36;;;;;;;10.27;4.37;;;7.90;77.10;;;;;;5014998;28;20116;-81
2021/04/18 03:50:03;;;;;;;11.60;4.57;;;8.00;77.10;;;;;;5016327;28;20030;-81
2021/04/18 03:52:29;;;;;;;12.37;4.40;;;8.00;77.10;;;;;;5016157;28;20450;-81
2021/04/18 03:54:54;;;;;;;9.90;4.53;;;8.00;77.10;;;;;;5016743;28;20030;-80
2021/04/18 03:57:20;;;;;;;14.33;6.33;;;8.00;77.20;;;;;;5015942;28;20046;-81
2021/04/18 03:59:46;;;;;;;10.43;5.17;;;8.00;77.30;;;;;;5014627;28;20562;-81
2021/04/18 04:02:11;;;;;;;12.03;4.93;;;8.00;77.70;;;;;;5016248;28;20429;-81
2021/04/18 04:04:37;;;;;;;9.60;4.43;;;7.90;77.80;;;;;;5016785;28;20109;-81
2021/04/18 04:07:03;;;;;;;12.80;5.53;;;8.00;78.00;;;;;;5017025;28;20030;-80
2021/04/18 04:09:29;;;;;;;9.97;4.80;;;8.10;77.70;;;;;;5015738;28;20038;-81
2021/04/18 04:11:55;;;;;;;11.77;5.00;;;8.00;78.10;;;;;;5017149;28;20101;-83
2021/04/18 04:14:21;;;;;;;12.50;5.13;;;8.00;78.50;;;;;;5015203;28;20068;-81
2021/04/18 04:16:46;;;;;;;9.73;4.90;;;8.00;78.40;;;;;;5015795;28;20018;-81
2021/04/18 04:19:12;;;;;;;14.10;5.83;;;8.10;78.40;;;;;;5015694;28;20083;-81
2021/04/18 04:21:38;;;;;;;13.27;5.07;;;7.90;78.60;;;;;;5014804;28;20331;-81
2021/04/18 04:24:04;;;;;;;9.17;4.70;;;8.00;79.00;;;;;;5015973;28;20026;-81
2021/04/18 04:26:29;;;;;;;10.90;5.27;;;8.00;79.20;;;;;;5015656;28;20105;-80
2021/04/18 04:28:55;;;;;;;12.83;5.60;;;8.00;79.30;;;;;;5013741;28;20061;-83
2021/04/18 04:31:21;;;;;;;12.07;5.27;;;7.90;79.60;;;;;;5017002;28;20084;-81
2021/04/18 04:33:46;;;;;;;11.03;5.17;;;7.90;80.50;;;;;;5015307;28;20076;-81
2021/04/18 04:36:12;;;;;;;13.03;5.70;;;8.00;79.70;;;;;;5014453;28;20041;-81
2021/04/18 04:38:38;;;;;;;10.50;5.20;;;8.00;79.60;;;;;;5013483;28;20060;-81
2021/04/18 04:41:03;;;;;;;12.37;5.60;;;8.00;80.00;;;;;;5013414;28;20030;-82
2021/04/18 04:43:29;;;;;;;13.87;5.67;;;7.90;81.10;;;;;;5015717;28;20026;-81
2021/04/18 04:45:55;;;;;;;14.97;8.00;;;7.90;81.30;;;;;;5015674;28;20367;-81
2021/04/18 04:48:21;;;;;;;15.43;6.73;;;7.80;82.40;;;;;;5015734;28;20025;-82
2021/04/18 04:50:47;;;;;;;22.40;6.23;;;7.80;82.60;;;;;;5014988;28;20021;-82
2021/04/18 04:53:13;;;;;;;16.07;6.27;;;7.90;82.10;;;;;;5015679;28;20049;-81
2021/04/18 04:55:38;;;;;;;11.53;5.07;;;7.80;82.00;;;;;;5014225;28;20037;-80
2021/04/18 04:58:04;;;;;;;13.17;6.03;;;7.90;81.80;;;;;;5015813;28;20072;-81
2021/04/18 05:00:30;;;;;;;13.30;5.63;;;7.80;82.10;;;;;;5014228;28;20034;-81
2021/04/18 05:02:55;;;;;;;17.30;7.97;;;7.80;82.40;;;;;;5013953;28;20029;-81
2021/04/18 05:05:21;;;;;;;14.40;6.33;;;7.70;82.70;;;;;;5012866;28;20382;-80
2021/04/18 05:07:46;;;;;;;16.43;6.90;;;7.70;82.90;;;;;;5013482;28;20033;-81
2021/04/18 05:10:12;;;;;;;14.30;6.50;;;7.70;83.00;;;;;;5011792;28;20026;-81
2021/04/18 05:12:38;;;;;;;18.80;8.93;;;7.80;83.20;;;;;;5011797;28;20057;-82
2021/04/18 05:15:05;;;;;;;14.07;6.77;;;7.80;83.10;;;;;;5013681;28;20026;-81
2021/04/18 05:17:30;;;;;;;15.23;6.43;;;7.80;83.60;;;;;;5013613;28;20113;-81
2021/04/18 05:19:56;;;;;;;17.37;6.90;;;7.70;84.20;;;;;;5011167;28;20057;-80
2021/04/18 05:22:21;;;;;;;20.77;6.70;;;7.70;84.40;;;;;;5007785;28;20022;-81
2021/04/18 05:24:47;;;;;;;14.10;6.33;;;7.70;84.50;;;;;;4999023;28;20026;-81
2021/04/18 05:27:13;;;;;;;15.00;6.20;;;7.70;84.60;;;;;;5002416;28;20014;-80
2021/04/18 05:29:38;;;;;;;21.87;10.50;;;7.70;84.70;;;;;;5004483;28;20097;-81
2021/04/18 05:32:05;;;;;;;18.37;6.90;;;7.80;84.80;;;;;;4997164;28;20054;-81
2021/04/18 05:34:32;;;;;;;14.83;6.90;;;7.80;84.60;;;;;;4992431;28;20041;-81
2021/04/18 05:36:57;;;;;;;15.33;6.90;;;7.90;84.60;;;;;;4993814;28;20023;-81
2021/04/18 05:39:23;;;;;;;16.23;7.17;;;7.80;85.00;;;;;;5007873;28;20385;-80
2021/04/18 05:41:49;;;;;;;14.67;7.20;;;7.90;84.90;;;;;;5006502;28;20029;-83
2021/04/18 05:44:14;;;;;;;19.00;7.00;;;7.90;84.80;;;;;;5007671;28;20045;-81
2021/04/18 05:46:43;;;;;;;20.50;7.90;;;7.90;85.30;;;;;;5013759;28;20109;-81
2021/04/18 05:49:10;;;;;;;21.60;7.63;;;7.80;86.20;;;;;;5003999;28;20411;-81
2021/04/18 05:51:36;;;;;;;15.30;7.57;;;7.90;85.80;;;;;;5016895;28;20034;-80
2021/04/18 05:54:03;;;;;;;15.07;6.73;;;7.90;86.30;;;;;;5015647;28;20033;-81
2021/04/18 05:56:28;;;;;;;20.13;7.73;;;7.90;86.20;;;;;;5014953;28;20037;-81
2021/04/18 05:58:54;;;;;;;18.40;7.50;;;7.80;86.20;;;;;;5017119;28;20491;-81
2021/04/18 06:01:23;;;;;;;19.20;8.00;;;7.90;86.30;;;;;;5015966;28;20156;-80
2021/04/18 06:03:54;;;;;;;21.48;8.25;;;7.80;86.90;;;;;;5017047;28;20108;-81
2021/04/18 06:06:20;;;;;;;18.80;8.13;;;7.80;87.10;;;;;;5016051;28;20032;-85
2021/04/18 06:08:45;;;;;;;20.73;9.07;;;7.70;88.00;;;;;;5015608;28;20022;-82
2021/04/18 06:11:11;;;;;;;18.83;8.40;;;7.80;87.50;;;;;;5014302;28;20112;-82
2021/04/18 06:13:37;;;;;;;20.00;7.63;;;7.70;87.90;;;;;;5015648;28;20172;-81
2021/04/18 06:16:02;;;;;;;20.67;7.50;;;7.80;87.70;;;;;;5015090;28;20030;-80
2021/04/18 06:18:28;;;;;;;15.10;7.70;;;7.90;87.60;;;;;;5014485;28;20028;-81
2021/04/18 06:20:54;;;;;;;20.27;9.10;;;7.90;88.40;;;;;;5014784;28;20109;-81
2021/04/18 06:23:22;;;;;;;16.13;7.10;;;8.00;87.70;;;;;;5016484;28;20114;-81
2021/04/18 06:25:47;;;;;;;16.73;7.23;;;8.00;87.90;;;;;;5016023;28;20080;-81
2021/04/18 06:28:13;;;;;;;18.77;8.23;;;8.00;87.80;;;;;;5014706;28;20030;-81
2021/04/18 06:30:39;;;;;;;20.67;7.77;;;8.10;88.10;;;;;;5015974;28;20048;-81
2021/04/18 06:33:05;;;;;;;18.87;8.20;;;8.10;87.70;;;;;;5015713;28;20026;-81
2021/04/18 06:35:30;;;;;;;20.37;8.17;;;8.20;87.50;;;;;;5016715;28;20033;-82
2021/04/18 06:37:56;;;;;;;18.83;8.43;;;8.20;87.50;;;;;;5015812;28;20052;-83
2021/04/18 06:40:22;;;;;;;16.63;8.13;;;8.20;87.60;;;;;;5004477;28;20033;-83
2021/04/18 06:42:50;;;;;;;19.67;8.97;;;8.20;87.30;;;;;;4999730;28;20034;-83
2021/04/18 06:45:16;;;;;;;17.37;8.20;;;8.20;87.20;;;;;;4996042;28;20060;-82
2021/04/18 06:47:42;;;;;;;16.93;8.93;;;8.20;87.40;;;;;;4997844;28;20098;-82
2021/04/18 06:50:10;;;;;;;18.43;8.03;;;8.20;87.20;;;;;;4998332;28;20464;-83
2021/04/18 06:52:36;;;;;;;17.40;8.80;;;8.20;87.60;;;;;;4999761;28;20057;-84
2021/04/18 06:55:02;;;;;;;19.53;9.00;;;8.30;87.40;;;;;;4998572;28;20026;-83
2021/04/18 06:57:29;;;;;;;16.40;8.87;;;8.40;87.10;;;;;;4997934;28;20033;-83
2021/04/18 06:59:54;;;;;;;18.60;8.57;;;8.40;87.50;;;;;;4996538;28;20088;-82
2021/04/18 07:02:24;;;;;;;24.03;8.87;;;8.40;87.50;;;;;;4996760;28;20466;-82
2021/04/18 07:05:16;;;;;;;26.50;9.17;;;8.40;89.00;;;;;;4996633;28;20109;-84
2021/04/18 07:07:45;;;;;;;28.50;9.70;;;8.40;88.70;;;;;;4992881;28;20039;-82
2021/04/18 07:10:32;;;;;;;27.40;10.20;;;8.50;89.30;;;;;;5004295;28;20110;-82
2021/04/18 07:13:13;;;;;;;20.80;9.00;;;8.50;89.20;;;;;;5012801;28;20033;-81
2021/04/18 07:15:41;;;;;;;25.00;9.70;;;8.50;88.60;;;;;;5014946;28;20557;-82
2021/04/18 07:18:08;;;;;;;21.83;10.00;;;8.50;89.10;;;;;;5014391;28;20060;-81
2021/04/18 07:20:34;;;;;;;22.27;10.30;;;8.60;88.30;;;;;;5013786;28;20129;-82
2021/04/18 07:23:36;;;;;;;22.20;9.70;;;8.60;89.50;;;;;;5014599;28;20049;-81
2021/04/18 07:26:25;;;;;;;24.13;9.87;;;8.60;89.90;;;;;;5028521;28;20390;-82
2021/04/18 07:28:52;;;;;;;20.63;8.82;;;8.70;89.00;;;;;;5014400;28;20034;-84
2021/04/18 07:31:34;;;;;;;24.47;9.93;;;8.70;88.40;;;;;;5028191;28;20510;-84
2021/04/18 07:34:04;;;;;;;22.97;9.20;;;8.80;88.10;;;;;;5013796;28;20053;-83
2021/04/18 07:36:31;;;;;;;23.70;9.57;;;8.70;87.90;;;;;;5013158;28;20038;-86
2021/04/18 07:38:57;;;;;;;18.07;8.23;;;8.70;88.00;;;;;;5012300;28;20491;-85
2021/04/18 07:41:24;;;;;;;17.70;8.37;;;8.80;87.80;;;;;;5010865;28;20026;-85
2021/04/18 07:43:51;;;;;;;16.40;8.10;;;8.90;87.30;;;;;;5012194;28;20109;-85
2021/04/18 07:46:17;;;;;;;16.77;7.33;;;8.80;86.50;;;;;;5010424;28;20021;-86
2021/04/18 07:48:44;;;;;;;16.77;8.37;;;8.90;87.20;;;;;;5013334;28;20026;-83
2021/04/18 07:51:10;;;;;;;22.97;8.47;;;8.80;86.70;;;;;;5014453;28;20142;-84
2021/04/18 07:53:37;;;;;;;17.93;7.50;;;8.90;86.60;;;;;;5013995;28;20026;-82
2021/04/18 07:56:07;;;;;;;13.93;7.97;;;8.80;86.00;;;;;;5013728;28;20096;-80
2021/04/18 07:58:36;;;;;;;18.23;8.27;;;8.90;85.90;;;;;;5013214;28;20026;-80
2021/04/18 08:01:02;;;;;;;16.83;7.97;;;9.00;85.20;;;;;;5012355;28;20026;-80
2021/04/18 08:03:28;;;;;;;14.23;8.03;;;8.90;85.40;;;;;;5014052;28;20033;-79
2021/04/18 08:05:54;;;;;;;17.27;7.90;;;9.10;85.40;;;;;;5012784;28;20022;-80
2021/04/18 08:08:21;;;;;;;18.23;8.20;;;9.00;85.00;;;;;;5012657;28;20137;-80
2021/04/18 08:10:54;;;;;;;15.60;7.50;;;9.10;84.40;;;;;;5011175;28;20030;-79
2021/04/18 08:13:25;;;;;;;15.73;7.20;;;9.10;84.30;;;;;;5012121;28;20550;-80
2021/04/18 08:15:57;;;;;;;15.77;7.93;;;9.20;84.40;;;;;;5013204;28;20049;-80
2021/04/18 08:18:43;;;;;;;13.93;7.43;;;9.20;84.40;;;;;;5013870;28;20049;-80
2021/04/18 08:21:27;;;;;;;14.47;7.37;;;9.30;84.40;;;;;;5013167;28;20025;-80
2021/04/18 08:23:53;;;;;;;18.90;8.13;;;9.30;84.00;;;;;;5013613;28;20100;-80
2021/04/18 08:26:21;;;;;;;17.93;8.30;;;9.40;84.20;;;;;;5012924;28;20026;-80
2021/04/18 08:31:28;;;;;;;21.13;8.93;;;9.40;84.00;;;;;;5012795;28;20057;-80
2021/04/18 08:33:56;;;;;;;23.53;8.70;;;9.40;84.50;;;;;;5013739;28;20426;-80
2021/04/18 08:36:24;;;;;;;19.93;9.00;;;9.40;84.30;;;;;;5012997;28;20503;-79
2021/04/18 08:39:05;;;;;;;20.30;9.37;;;9.40;83.90;;;;;;5013287;28;20034;-79
2021/04/18 08:41:41;;;;;;;16.07;8.17;;;9.40;83.90;;;;;;5013094;28;20387;-80
2021/04/18 08:44:15;;;;;;;16.40;9.30;;;9.30;83.50;;;;;;5013087;28;20030;-79
2021/04/18 08:46:41;;;;;;;19.57;8.10;;;9.40;83.80;;;;;;5013474;28;20061;-80
2021/04/18 08:49:10;;;;;;;18.30;9.03;;;9.40;83.60;;;;;;5014041;28;20109;-80
2021/04/18 08:51:40;;;;;;;17.13;7.72;;;9.40;83.50;;;;;;5014998;28;20115;-81
2021/04/18 08:54:06;;;;;;;20.10;8.63;;;9.50;83.00;;;;;;5015018;28;20106;-80
2021/04/18 08:56:47;;;;;;;18.77;8.27;;;9.50;83.20;;;;;;5014478;28;20033;-80
2021/04/18 08:59:13;;;;;;;18.87;7.97;;;9.50;83.30;;;;;;5014868;28;20101;-80
2021/04/18 09:01:53;;;;;;;19.13;9.33;;;9.50;83.50;;;;;;5015509;28;20491;-80
2021/04/18 09:04:22;;;;;;;21.80;8.67;;;9.50;83.60;;;;;;5016222;28;20101;-80
2021/04/18 09:06:48;;;;;;;20.85;9.02;;;9.60;83.90;;;;;;5016809;28;20448;-80
2021/04/18 09:09:15;;;;;;;20.37;9.13;;;9.60;84.10;;;;;;5016848;28;20041;-80
2021/04/18 09:11:44;;;;;;;18.20;9.07;;;9.70;84.20;;;;;;5016238;28;20022;-81
2021/04/18 09:14:10;;;;;;;25.20;9.65;;;9.70;83.80;;;;;;5017570;28;20033;-80
2021/04/18 09:16:37;;;;;;;23.00;11.87;;;9.70;84.60;;;;;;5016626;28;20045;-80
2021/04/18 09:19:30;;;;;;;23.47;10.20;;;9.70;84.90;;;;;;5015591;28;20174;-80
2021/04/18 09:22:10;;;;;;;24.63;10.10;;;9.70;84.50;;;;;;5018312;28;20026;-80
2021/04/18 09:24:46;;;;;;;22.03;10.50;;;9.70;84.70;;;;;;5020053;28;20030;-80
2021/04/18 09:27:25;;;;;;;28.00;12.70;;;9.80;84.70;;;;;;5018962;28;20120;-80
2021/04/18 09:29:55;;;;;;;26.25;12.48;;;9.80;84.90;;;;;;5018564;28;20025;-80
2021/04/18 09:32:23;;;;;;;25.07;10.87;;;9.90;85.20;;;;;;5018964;28;20098;-80
2021/04/18 09:34:49;;;;;;;24.83;10.00;;;10.00;85.00;;;;;;5019280;28;20021;-80
2021/04/18 09:37:29;;;;;;;18.07;9.53;;;10.00;84.40;;;;;;5018912;28;20026;-80
2021/04/18 09:40:03;;;;;;;26.20;9.83;;;10.00;84.20;;;;;;5019199;28;20111;-81
2021/04/18 09:42:41;;;;;;;21.77;9.57;;;10.00;83.60;;;;;;5019585;28;20442;-80
2021/04/18 09:45:07;;;;;;;15.63;8.23;;;10.00;83.60;;;;;;5020414;28;20022;-81
2021/04/18 09:47:32;;;;;;;19.07;9.30;;;10.10;83.40;;;;;;5018967;28;20418;-80
2021/04/18 09:50:00;;;;;;;21.93;8.73;;;10.20;83.30;;;;;;5019610;28;20086;-80
2021/04/18 09:52:35;;;;;;;25.73;10.10;;;10.20;83.30;;;;;;5018969;28;20167;-80
2021/04/18 09:55:08;;;;;;;23.80;9.40;;;10.20;83.20;;;;;;5017285;28;20026;-80
2021/04/18 09:57:45;;;;;;;20.37;10.27;;;10.20;83.50;;;;;;5018684;28;20018;-80
2021/04/18 10:00:19;;;;;;;22.20;10.03;;;10.30;83.00;;;;;;5018310;28;20026;-81
2021/04/18 10:03:01;;;;;;;17.80;8.97;;;10.30;82.50;;;;;;5016907;28;20029;-80
2021/04/18 10:05:29;;;;;;;21.00;10.43;;;10.30;82.10;;;;;;5017740;28;20107;-81
2021/04/18 10:08:27;;;;;;;20.80;9.50;;;10.40;82.20;;;;;;5017722;28;20058;-80
2021/04/18 10:10:53;;;;;;;19.03;9.47;;;10.40;82.20;;;;;;5015704;28;20451;-80
2021/04/18 10:13:54;;;;;;;23.50;9.53;;;10.50;81.90;;;;;;5017112;28;20475;-81
2021/04/18 10:16:25;;;;;;;17.57;9.50;;;10.50;80.70;;;;;;5018104;28;20045;-80
2021/04/18 10:19:25;;;;;;;21.13;9.90;;;10.50;81.00;;;;;;5017749;28;20029;-80
2021/04/18 10:22:10;;;;;;;20.07;10.20;;;10.50;81.20;;;;;;5017436;28;20546;-81
2021/04/18 10:24:53;;;;;;;23.10;10.20;;;10.50;81.80;;;;;;5017581;28;20022;-80
2021/04/18 10:27:21;;;;;;;22.53;9.63;;;10.50;81.90;;;;;;5017298;28;20022;-81
2021/04/18 10:29:48;;;;;;;18.10;9.30;;;10.50;81.40;;;;;;5017501;28;20025;-81
2021/04/18 10:32:15;;;;;;;20.13;9.30;;;10.50;81.40;;;;;;5016206;28;20029;-81
2021/04/18 10:34:41;;;;;;;20.57;9.67;;;10.60;81.50;;;;;;5017729;28;20026;-81
2021/04/18 10:37:07;;;;;;;16.00;8.87;;;10.60;81.20;;;;;;5016032;28;20029;-81
2021/04/18 10:39:33;;;;;;;20.90;9.70;;;10.70;81.20;;;;;;5015240;28;20371;-80
2021/04/18 10:41:59;;;;;;;19.40;9.67;;;10.70;81.00;;;;;;5014796;28;20046;-80
2021/04/18 10:44:26;;;;;;;24.27;9.53;;;10.70;80.70;;;;;;5016071;28;20097;-81
2021/04/18 10:46:55;;;;;;;18.87;9.20;;;10.70;81.00;;;;;;5016309;28;20084;-81
2021/04/18 10:49:22;;;;;;;19.90;8.85;;;10.70;80.30;;;;;;5014103;28;20030;-81
2021/04/18 10:51:48;;;;;;;23.13;9.13;;;10.70;80.70;;;;;;5013900;28;20040;-80
2021/04/18 10:54:16;;;;;;;19.67;9.23;;;10.70;80.70;;;;;;5016944;28;20053;-81
2021/04/18 10:56:42;;;;;;;17.30;8.30;;;10.80;80.70;;;;;;5018565;28;20533;-81
2021/04/18 10:59:08;;;;;;;18.07;9.87;;;10.90;80.70;;;;;;5016522;28;20022;-81
2021/04/18 11:01:34;;;;;;;16.20;8.93;;;11.00;80.40;;;;;;5013930;28;20468;-81
2021/04/18 11:04:00;;;;;;;21.90;9.97;;;11.10;80.10;;;;;;5018852;28;20060;-81
2021/04/18 11:06:26;;;;;;;22.13;9.93;;;11.10;78.80;;;;;;5018523;28;20118;-81
2021/04/18 11:08:51;;;;;;;28.47;14.27;;;11.10;79.00;;;;;;5018382;28;20032;-81
2021/04/18 11:11:18;;;;;;;20.70;10.47;;;11.20;78.40;;;;;;5018307;28;20029;-81
2021/04/18 11:13:44;;;;;;;18.60;10.17;;;11.20;78.60;;;;;;5018686;28;20095;-81
2021/04/18 11:16:10;;;;;;;21.73;10.20;;;11.20;79.30;;;;;;5019772;28;20421;-81
2021/04/18 11:18:35;;;;;;;24.27;11.87;;;11.30;77.90;;;;;;5019365;28;20030;-81
2021/04/18 11:21:01;;;;;;;25.20;12.90;;;11.40;77.10;;;;;;5019093;28;20028;-81
2021/04/18 11:23:27;;;;;;;20.27;9.17;;;11.40;77.00;;;;;;5017479;28;20049;-81
2021/04/18 11:25:53;;;;;;;21.37;10.53;;;11.40;76.90;;;;;;5018930;28;20037;-81
2021/04/18 11:28:18;;;;;;;20.63;9.43;;;11.50;76.50;;;;;;5019596;28;20026;-81
2021/04/18 11:30:44;;;;;;;19.27;9.77;;;11.60;77.10;;;;;;5019133;28;20069;-81
2021/04/18 11:33:10;;;;;;;18.30;8.90;;;11.80;77.50;;;;;;5017188;28;20037;-81
2021/04/18 11:35:36;;;;;;;19.10;9.03;;;11.70;76.40;;;;;;5018826;28;20089;-81
2021/04/18 11:38:02;;;;;;;15.50;8.50;;;11.70;76.50;;;;;;5019634;28;20073;-81
2021/04/18 11:40:29;;;;;;;18.23;9.67;;;11.80;76.60;;;;;;5019103;28;20533;-81
2021/04/18 11:42:55;;;;;;;20.10;9.30;;;11.80;76.70;;;;;;5019131;28;20045;-81
2021/04/18 11:45:21;;;;;;;19.50;10.27;;;11.80;76.80;;;;;;5017789;28;20116;-81
2021/04/18 11:47:47;;;;;;;20.03;10.60;;;11.70;77.20;;;;;;5019286;28;20025;-81
2021/04/18 11:50:13;;;;;;;19.80;10.30;;;11.80;76.90;;;;;;5016696;28;20047;-81
2021/04/18 11:52:40;;;;;;;15.77;8.80;;;11.80;76.90;;;;;;5018339;28;20155;-81
2021/04/18 11:55:08;;;;;;;19.87;9.03;;;11.90;77.10;;;;;;5017147;28;20094;-81
2021/04/18 11:57:34;;;;;;;19.58;9.63;;;12.00;77.30;;;;;;5018720;28;20083;-81
2021/04/18 12:00:00;;;;;;;18.47;9.83;;;12.10;76.60;;;;;;5018808;28;20284;-81
2021/04/18 12:02:26;;;;;;;23.90;9.67;;;12.00;76.00;;;;;;5019077;28;20070;-81
2021/04/18 12:04:51;;;;;;;21.77;9.63;;;12.10;76.10;;;;;;5018879;28;20100;-81
2021/04/18 12:07:17;;;;;;;16.87;9.17;;;12.20;75.90;;;;;;5018357;28;20018;-81
2021/04/18 12:09:42;;;;;;;21.47;9.37;;;12.20;75.50;;;;;;5018485;28;20018;-81
2021/04/18 12:12:08;;;;;;;19.07;9.33;;;12.30;75.50;;;;;;5018151;28;20041;-81
2021/04/18 12:14:34;;;;;;;18.67;9.60;;;12.30;75.00;;;;;;5018360;28;20029;-81
2021/04/18 12:17:00;;;;;;;16.33;8.63;;;12.40;74.80;;;;;;5018582;28;20455;-81
2021/04/18 12:19:25;;;;;;;17.10;9.03;;;12.40;73.90;;;;;;5016491;28;20391;-81
2021/04/18 12:21:51;;;;;;;20.63;9.20;;;12.50;74.40;;;;;;5018020;28;20030;-81
2021/04/18 12:24:17;;;;;;;19.20;9.50;;;12.40;74.00;;;;;;5019334;28;20025;-82
2021/04/18 12:26:42;;;;;;;14.83;8.40;;;12.40;73.90;;;;;;5017278;28;20028;-81
2021/04/18 12:29:08;;;;;;;18.67;9.93;;;12.40;74.40;;;;;;5018939;28;20041;-81
2021/04/18 12:31:36;;;;;;;15.53;8.47;;;12.30;74.40;;;;;;5018484;28;20507;-81
2021/04/18 12:34:03;;;;;;;20.35;9.43;;;12.30;74.50;;;;;;5018866;28;20078;-81
2021/04/18 12:36:29;;;;;;;18.00;9.40;;;12.40;74.80;;;;;;5017615;28;20034;-81
2021/04/18 12:38:54;;;;;;;21.43;10.80;;;12.40;74.80;;;;;;5018530;28;20033;-81
2021/04/18 12:41:20;;;;;;;22.63;10.10;;;12.40;74.50;;;;;;5015839;28;20038;-81
2021/04/18 12:43:46;;;;;;;18.97;9.70;;;12.40;74.80;;;;;;5018108;28;20340;-81
2021/04/18 12:46:11;;;;;;;16.83;8.77;;;12.40;75.10;;;;;;5018350;28;20029;-81
2021/04/18 12:48:37;;;;;;;13.13;8.70;;;12.50;74.60;;;;;;5018666;28;20039;-81
2021/04/18 12:51:04;;;;;;;17.57;9.00;;;12.40;74.50;;;;;;5018906;28;20438;-81